createdAt,value
2022-10-04T00:02:28.720Z,99987.78
2022-10-04T00:05:17.296Z,99977.00
2022-10-04T00:08:19.474Z,99968.31
2022-10-04T00:11:06.855Z,99972.41
2022-10-04T00:13:55.713Z,99981.75
2022-10-04T00:16:41.929Z,99979.88
2022-10-04T00:19:42.019Z,99992.94
2022-10-04T00:22:27.631Z,99997.47
2022-10-04T00:25:21.042Z,99996.16
2022-10-04T00:28:30.054Z,100006.69
2022-10-04T00:31:21.467Z,100001.63
2022-10-04T00:34:47.216Z,100003.47
2022-10-04T00:37:58.291Z,100001.81
2022-10-04T00:40:48.383Z,99998.66
2022-10-04T00:43:37.634Z,99988.34
2022-10-04T00:46:25.545Z,99996.41
2022-10-04T00:49:12.316Z,99987.81
2022-10-04T00:52:02.233Z,99969.75
2022-10-04T00:54:51.722Z,99970.59
2022-10-04T00:57:41.746Z,100008.72
2022-10-04T01:00:26.324Z,99993.13
2022-10-04T01:03:16.612Z,100004.09
2022-10-04T01:06:04.279Z,99998.53
2022-10-04T01:08:52.136Z,99950.25
2022-10-04T01:11:40.112Z,99994.22
2022-10-04T01:14:31.988Z,99988.16
2022-10-04T01:17:15.929Z,99996.69
2022-10-04T01:20:01.084Z,99995.75
2022-10-04T01:22:51.663Z,99992.22
2022-10-04T01:25:49.707Z,99999.03
2022-10-04T01:28:35.231Z,99982.16
2022-10-04T01:31:19.443Z,99941.09
2022-10-04T01:34:05.217Z,99978.16
2022-10-04T01:36:51.468Z,99984.75
2022-10-04T01:39:36.770Z,99971.03
2022-10-04T01:42:24.909Z,99970.69
2022-10-04T01:45:15.073Z,99955.66
2022-10-04T01:48:02.841Z,99990.63
2022-10-04T01:50:55.776Z,99994.16
2022-10-04T01:53:46.442Z,99995.16
2022-10-04T01:56:35.468Z,99971.78
2022-10-04T01:59:24.868Z,100014.69
2022-10-04T02:02:18.066Z,100019.31
2022-10-04T02:05:04.713Z,100023.38
2022-10-04T02:07:50.226Z,100021.13
2022-10-04T02:10:39.817Z,100022.31
2022-10-04T02:13:35.487Z,100012.72
2022-10-04T02:16:20.873Z,100022.56
2022-10-04T02:19:05.097Z,99999.84
2022-10-04T02:21:50.664Z,100018.97
2022-10-04T02:24:36.918Z,99997.97
2022-10-04T02:27:20.718Z,100037.41
2022-10-04T02:30:08.228Z,100036.19
2022-10-04T02:33:00.593Z,100038.84
2022-10-04T02:35:47.230Z,100007.78
2022-10-04T02:38:36.750Z,100059.19
2022-10-04T02:41:26.253Z,100058.84
2022-10-04T02:44:14.878Z,100063.69
2022-10-04T02:47:10.328Z,100045.09
2022-10-04T02:49:57.537Z,100053.22
2022-10-04T02:52:47.722Z,100070.50
2022-10-04T02:55:32.957Z,100076.66
2022-10-04T02:58:20.647Z,100071.94
2022-10-04T03:01:04.548Z,100073.44
2022-10-04T03:03:49.826Z,100085.16
2022-10-04T03:06:34.627Z,100055.34
2022-10-04T03:09:20.856Z,100080.25
2022-10-04T03:12:06.497Z,100087.41
2022-10-04T03:14:50.288Z,100085.78
2022-10-04T03:17:35.340Z,100086.22
2022-10-04T03:20:21.583Z,100085.72
2022-10-04T03:23:06.888Z,100091.25
2022-10-04T03:25:56.858Z,100100.38
2022-10-04T03:28:41.303Z,100064.38
2022-10-04T03:31:26.939Z,100099.28
2022-10-04T03:34:16.435Z,100099.44
2022-10-04T03:37:02.817Z,100085.00
2022-10-04T03:39:48.604Z,100100.03
2022-10-04T03:42:36.268Z,100110.94
2022-10-04T03:45:22.519Z,100080.84
2022-10-04T03:48:09.224Z,100097.78
2022-10-04T03:50:54.621Z,100092.91
2022-10-04T03:53:43.518Z,100126.97
2022-10-04T03:56:30.813Z,100108.00
2022-10-04T03:59:19.142Z,100102.16
2022-10-04T04:02:11.637Z,100135.75
2022-10-04T04:05:05.863Z,100139.91
2022-10-04T04:08:00.779Z,100136.28
2022-10-04T04:10:51.517Z,100148.06
2022-10-04T04:13:49.228Z,100158.38
2022-10-04T04:16:33.519Z,100158.91
2022-10-04T04:19:23.515Z,100159.09
2022-10-04T04:22:07.390Z,100146.09
2022-10-04T04:24:51.585Z,100158.63
2022-10-04T04:27:40.803Z,100139.94
2022-10-04T04:30:24.671Z,100168.25
2022-10-04T04:33:20.985Z,100158.28
2022-10-04T04:36:07.823Z,100186.38
2022-10-04T04:39:09.122Z,100180.16
2022-10-04T04:41:53.056Z,100193.06
2022-10-04T04:44:39.275Z,100181.63
2022-10-04T04:58:33.232Z,100181.41
2022-10-04T05:01:23.903Z,100211.09
2022-10-04T05:04:18.642Z,100177.59
2022-10-04T05:07:05.273Z,100224.41
2022-10-04T05:09:49.062Z,100217.41
2022-10-04T05:12:32.881Z,100193.88
2022-10-04T05:15:19.654Z,100223.91
2022-10-04T05:18:17.807Z,100223.38
2022-10-04T05:21:08.129Z,100230.28
2022-10-04T05:23:52.672Z,100229.50
2022-10-04T05:26:36.585Z,100240.94
2022-10-04T05:29:24.169Z,100237.69
2022-10-04T05:32:22.891Z,100246.47
2022-10-04T05:35:17.833Z,100195.69
2022-10-04T05:38:07.250Z,100259.22
2022-10-04T05:41:00.453Z,100257.16
2022-10-04T05:43:47.249Z,100262.66
2022-10-04T05:46:32.642Z,100279.41
2022-10-04T05:49:19.807Z,100245.28
2022-10-04T05:52:05.256Z,100277.22
2022-10-04T05:55:22.444Z,100275.31
2022-10-04T05:58:36.246Z,100288.81
2022-10-04T06:01:34.718Z,100236.06
2022-10-04T06:04:32.720Z,100233.81
2022-10-04T06:07:24.061Z,100231.81
2022-10-04T06:10:34.587Z,100234.81
2022-10-04T06:13:40.089Z,100276.72
2022-10-04T06:16:35.484Z,100246.53
2022-10-04T06:19:53.762Z,100271.75
2022-10-04T06:22:45.762Z,100277.50
2022-10-04T06:25:34.603Z,100275.47
2022-10-04T06:28:24.480Z,100246.97
2022-10-04T06:31:35.049Z,100274.97
2022-10-04T06:34:36.766Z,100292.19
2022-10-04T06:37:38.743Z,100299.44
2022-10-04T06:40:54.327Z,100296.19
2022-10-04T06:44:07.905Z,100305.81
2022-10-04T06:46:55.054Z,100307.50
2022-10-04T06:49:47.481Z,100308.97
2022-10-04T06:52:49.611Z,100297.81
2022-10-04T06:55:55.048Z,100308.41
2022-10-04T06:58:57.742Z,100316.44
2022-10-04T07:01:50.849Z,100283.41
2022-10-04T07:05:06.564Z,100305.47
2022-10-04T07:07:48.683Z,100310.75
2022-10-04T07:10:37.821Z,100286.59
2022-10-04T07:13:39.337Z,100270.88
2022-10-04T07:16:44.395Z,100329.72
2022-10-04T07:19:33.952Z,100324.41
2022-10-04T07:22:23.627Z,100304.59
2022-10-04T07:25:20.377Z,100338.38
2022-10-04T07:28:31.013Z,100336.88
2022-10-04T07:31:23.150Z,100338.69
2022-10-04T07:34:12.631Z,100343.69
2022-10-04T07:36:58.627Z,100331.00
2022-10-04T07:39:50.516Z,100346.00
2022-10-04T07:42:41.665Z,100355.91
2022-10-04T07:45:32.628Z,100364.44
2022-10-04T07:48:23.411Z,100345.25
2022-10-04T07:51:19.795Z,100245.81
2022-10-04T07:54:14.114Z,100364.66
2022-10-04T07:57:02.486Z,100369.13
2022-10-04T08:00:01.060Z,100352.38
2022-10-04T08:03:23.283Z,100366.13
2022-10-04T08:06:13.130Z,100366.78
2022-10-04T08:09:12.161Z,100369.44
2022-10-04T08:12:08.001Z,100359.75
2022-10-04T08:14:58.617Z,100365.19
2022-10-04T08:17:57.206Z,100369.22
2022-10-04T08:20:49.081Z,100338.00
2022-10-04T08:24:04.652Z,100354.19
2022-10-04T08:26:59.885Z,100325.91
2022-10-04T08:30:02.182Z,100360.38
2022-10-04T08:33:02.049Z,100372.88
2022-10-04T08:35:54.416Z,100379.00
2022-10-04T08:38:45.608Z,100349.44
2022-10-04T08:41:54.250Z,100384.28
2022-10-04T08:45:32.718Z,100382.09
2022-10-04T08:48:51.934Z,100383.94
2022-10-04T08:52:14.177Z,100379.56
2022-10-04T08:55:39.758Z,100383.25
2022-10-04T08:59:12.183Z,100394.81
2022-10-04T09:02:35.757Z,100391.88
2022-10-04T09:05:40.467Z,100386.19
2022-10-04T09:09:05.088Z,100392.28
2022-10-04T09:12:06.133Z,100385.53
2022-10-04T09:15:13.761Z,100382.13
2022-10-04T09:18:04.608Z,100396.94
2022-10-04T09:20:59.130Z,100406.41
2022-10-04T09:24:34.858Z,100410.03
2022-10-04T09:27:54.255Z,100384.31
2022-10-04T09:30:54.571Z,100405.25
2022-10-04T09:34:06.130Z,100409.19
2022-10-04T09:37:19.561Z,100407.09
2022-10-04T09:40:37.763Z,100406.22
2022-10-04T09:43:52.179Z,100407.56
2022-10-04T09:46:57.668Z,100406.91
2022-10-04T09:50:05.878Z,100408.81
2022-10-04T09:52:58.946Z,100421.47
2022-10-04T09:55:58.551Z,100369.91
2022-10-04T09:58:58.753Z,100341.56
2022-10-04T10:02:17.977Z,100425.75
2022-10-04T10:05:29.621Z,100379.81
2022-10-04T10:08:28.005Z,100399.53
2022-10-04T10:11:34.819Z,100425.41
2022-10-04T10:14:56.599Z,100359.34
2022-10-04T10:17:45.246Z,100438.59
2022-10-04T10:21:04.878Z,100432.97
2022-10-04T10:24:19.643Z,100405.88
2022-10-04T10:27:41.975Z,100427.50
2022-10-04T10:30:31.297Z,100396.09
2022-10-04T10:33:42.737Z,100428.31
2022-10-04T10:36:49.745Z,100434.97
2022-10-04T10:40:01.453Z,100432.91
2022-10-04T10:43:09.598Z,100433.47
2022-10-04T10:46:05.867Z,100435.44
2022-10-04T10:49:04.868Z,100407.72
2022-10-04T10:52:14.905Z,100398.06
2022-10-04T10:55:29.810Z,100439.56
2022-10-04T10:58:41.352Z,100407.59
2022-10-04T11:01:54.995Z,100437.00
2022-10-04T11:04:54.963Z,100439.88
2022-10-04T11:07:51.815Z,100407.59
2022-10-04T11:11:12.541Z,100449.63
2022-10-04T11:14:24.973Z,100438.91
2022-10-04T11:17:27.756Z,100421.31
2022-10-04T11:20:56.277Z,100454.84
2022-10-04T11:24:29.066Z,100452.88
2022-10-04T11:27:28.656Z,100449.84
2022-10-04T11:30:25.520Z,100453.25
2022-10-04T11:33:42.411Z,100455.28
2022-10-04T11:36:39.300Z,100460.66
2022-10-04T11:39:46.152Z,100468.19
2022-10-04T11:42:59.209Z,100429.56
2022-10-04T11:46:08.505Z,100467.06
2022-10-04T11:49:08.410Z,100432.13
2022-10-04T11:52:37.070Z,100465.59
2022-10-04T11:56:05.939Z,100464.44
2022-10-04T11:59:19.099Z,100473.63
2022-10-04T12:02:41.035Z,100474.47
2022-10-04T12:05:46.884Z,100432.97
2022-10-04T12:08:40.043Z,100465.47
2022-10-04T12:12:10.889Z,100440.16
2022-10-04T12:15:22.287Z,100461.00
2022-10-04T12:18:35.055Z,100465.72
2022-10-04T12:21:58.387Z,100468.97
2022-10-04T12:25:09.365Z,100459.13
2022-10-04T12:28:25.649Z,100432.16
2022-10-04T12:31:23.265Z,100472.69
2022-10-04T12:34:19.549Z,100476.69
2022-10-04T12:37:27.091Z,100464.72
2022-10-04T12:40:29.400Z,100467.53
2022-10-04T12:43:25.184Z,100442.03
2022-10-04T12:46:24.815Z,100476.09
2022-10-04T12:49:18.565Z,100471.38
2022-10-04T12:52:12.207Z,100476.88
2022-10-04T12:55:03.671Z,100480.31
2022-10-04T12:57:53.601Z,100472.28
2022-10-04T13:00:42.755Z,100474.59
2022-10-04T13:03:41.277Z,100474.16
2022-10-04T13:06:33.492Z,100477.53
2022-10-04T13:09:25.600Z,100483.59
2022-10-04T13:12:25.669Z,100477.28
2022-10-04T13:15:25.415Z,100466.31
2022-10-04T13:18:25.848Z,100476.81
2022-10-04T13:21:15.958Z,100477.09
2022-10-04T13:24:06.632Z,100474.00
2022-10-04T13:27:00.520Z,100483.09
2022-10-04T13:29:53.203Z,100482.09
2022-10-04T13:32:45.452Z,100484.19
2022-10-04T13:35:37.020Z,100487.72
2022-10-04T13:39:17.664Z,100484.53
2022-10-04T13:42:15.394Z,100486.28
2022-10-04T13:45:25.159Z,100490.38
2022-10-04T13:48:37.827Z,100492.09
2022-10-04T13:51:35.248Z,100489.53
2022-10-04T13:54:49.835Z,100483.72
2022-10-04T13:57:47.515Z,100493.34
2022-10-04T14:00:52.641Z,100497.47
2022-10-04T14:03:54.757Z,100505.97
2022-10-04T14:07:03.062Z,100501.56
2022-10-04T14:10:03.280Z,100495.38
2022-10-04T14:13:13.064Z,100503.78
2022-10-04T14:16:26.189Z,100510.94
2022-10-04T14:19:58.136Z,100505.19
2022-10-04T14:23:00.680Z,100516.84
2022-10-04T14:26:39.211Z,100515.84
2022-10-04T14:29:56.579Z,100519.16
2022-10-04T14:33:20.380Z,100529.63
2022-10-04T14:36:40.572Z,100533.75
2022-10-04T14:40:00.910Z,100529.41
2022-10-04T14:43:15.357Z,100541.69
2022-10-04T14:46:16.917Z,100542.75
2022-10-04T14:49:15.399Z,100522.75
2022-10-04T14:52:21.631Z,100545.66
2022-10-04T14:55:26.160Z,100554.44
2022-10-04T14:58:23.943Z,100556.59
2022-10-04T15:01:19.743Z,100544.94
2022-10-04T15:04:15.957Z,100565.13
2022-10-04T15:07:03.620Z,100570.97
2022-10-04T15:09:58.653Z,100557.09
2022-10-04T15:16:01.643Z,100567.91
2022-10-04T15:18:54.768Z,100583.59
2022-10-04T15:21:48.318Z,100529.50
2022-10-04T15:24:46.690Z,100539.84
2022-10-04T15:27:51.635Z,100590.91
2022-10-04T15:30:47.763Z,100575.59
2022-10-04T15:33:41.150Z,100595.16
2022-10-04T15:36:48.262Z,100599.50
2022-10-04T15:39:48.297Z,100608.28
2022-10-04T15:42:35.526Z,100612.13
2022-10-04T15:45:32.534Z,100601.78
2022-10-04T15:48:34.490Z,100612.78
2022-10-04T15:51:36.913Z,100624.16
2022-10-04T15:54:52.277Z,100629.56
2022-10-04T15:57:56.774Z,100629.06
2022-10-04T16:00:54.679Z,100622.63
2022-10-04T16:03:51.139Z,100626.69
2022-10-04T16:06:47.143Z,100617.72
2022-10-04T16:09:42.842Z,100614.00
2022-10-04T16:12:32.458Z,100643.38
2022-10-04T16:15:21.495Z,100642.16
2022-10-04T16:18:31.894Z,100655.81
2022-10-04T16:21:29.785Z,100646.91
2022-10-04T16:24:42.450Z,100653.38
2022-10-04T16:27:46.348Z,100660.84
2022-10-04T16:30:37.111Z,100665.41
2022-10-04T16:33:32.239Z,100673.81
2022-10-04T16:36:23.180Z,100661.22
2022-10-04T16:39:24.881Z,100680.88
2022-10-04T16:42:15.710Z,100684.00
2022-10-04T16:45:24.051Z,100674.41
2022-10-04T16:48:23.430Z,100689.06
2022-10-04T16:51:35.826Z,100696.66
2022-10-04T16:54:43.331Z,100698.09
2022-10-04T16:57:28.041Z,100697.75
2022-10-04T17:00:38.476Z,100699.25
2022-10-04T17:03:31.318Z,100709.91
2022-10-04T17:06:16.876Z,100708.63
2022-10-04T17:09:18.840Z,100706.84
2022-10-04T17:12:18.517Z,100712.78
2022-10-04T17:15:27.895Z,100714.31
2022-10-04T17:18:21.504Z,100725.06
2022-10-04T17:21:14.128Z,100730.44
2022-10-04T17:24:17.127Z,100725.88
2022-10-04T17:27:18.362Z,100729.47
2022-10-04T17:30:16.581Z,100731.38
2022-10-04T17:33:16.383Z,100731.53
2022-10-04T17:36:14.317Z,100726.16
2022-10-04T17:39:08.396Z,100741.00
2022-10-04T17:42:07.321Z,100744.69
2022-10-04T17:45:18.328Z,100737.41
2022-10-04T17:48:26.453Z,100752.69
2022-10-04T17:51:35.824Z,100719.72
2022-10-04T17:54:41.779Z,100710.91
2022-10-04T17:57:34.321Z,100761.44
2022-10-04T18:00:20.687Z,100758.75
2022-10-04T18:03:12.273Z,100758.06
2022-10-04T18:05:59.311Z,100734.19
2022-10-04T18:08:51.638Z,100772.97
2022-10-04T18:11:47.362Z,100769.72
2022-10-04T18:14:52.430Z,100752.97
2022-10-04T18:17:39.775Z,100789.22
2022-10-04T18:20:30.634Z,100790.16
2022-10-04T18:23:19.211Z,100795.63
2022-10-04T18:26:11.475Z,100799.34
2022-10-04T18:28:55.704Z,100801.22
2022-10-04T18:31:41.093Z,100774.16
2022-10-04T18:34:30.450Z,100807.38
2022-10-04T18:37:21.841Z,100807.63
2022-10-04T18:40:17.044Z,100823.22
2022-10-04T18:43:02.886Z,100819.22
2022-10-04T18:46:02.372Z,100817.97
2022-10-04T18:48:54.413Z,100829.38
2022-10-04T18:51:43.901Z,100823.53
2022-10-04T18:54:38.135Z,100816.03
2022-10-04T18:57:32.256Z,100853.94
2022-10-04T19:00:49.412Z,100838.41
2022-10-04T19:03:39.693Z,100840.03
2022-10-04T19:06:27.804Z,100838.94
2022-10-04T19:09:23.091Z,100839.72
2022-10-04T19:12:13.883Z,100852.81
2022-10-04T19:15:08.622Z,100850.78
2022-10-04T19:18:05.498Z,100840.63
2022-10-04T19:20:53.149Z,100852.88
2022-10-04T19:23:57.875Z,100852.34
2022-10-04T19:26:45.159Z,100855.44
2022-10-04T19:29:45.679Z,100861.00
2022-10-04T19:32:45.080Z,100867.50
2022-10-04T19:35:47.068Z,100864.19
2022-10-04T19:38:58.746Z,100870.44
2022-10-04T19:41:53.052Z,100874.34
2022-10-04T19:45:06.217Z,100862.47
2022-10-04T19:47:53.143Z,100882.38
2022-10-04T19:50:45.182Z,100880.38
2022-10-04T19:53:36.406Z,100849.63
2022-10-04T19:56:24.460Z,100887.22
2022-10-04T19:59:15.318Z,100888.53
2022-10-04T20:01:59.438Z,100900.31
2022-10-04T20:04:48.802Z,100882.91
2022-10-04T20:07:34.905Z,100890.19
2022-10-04T20:10:30.206Z,100886.53
2022-10-04T20:13:25.481Z,100908.94
2022-10-04T20:16:10.863Z,100905.09
2022-10-04T20:19:01.185Z,100888.59
2022-10-04T20:21:45.232Z,100899.25
2022-10-04T20:24:52.109Z,100904.22
2022-10-04T20:28:01.984Z,100911.50
2022-10-04T20:30:52.309Z,100914.47
2022-10-04T20:33:46.791Z,100841.09
2022-10-04T20:36:53.102Z,100918.63
2022-10-04T20:40:02.566Z,100920.78
2022-10-04T20:43:27.225Z,100917.88
2022-10-04T20:46:23.992Z,100920.44
2022-10-04T20:49:17.308Z,100917.97
2022-10-04T20:52:01.313Z,100922.44
2022-10-04T20:54:52.352Z,100919.56
2022-10-04T20:57:40.866Z,100920.84
2022-10-04T21:00:27.156Z,100899.91
2022-10-04T21:03:16.641Z,100888.28
2022-10-04T21:06:03.256Z,100909.69
2022-10-04T21:08:48.595Z,100925.00
2022-10-04T21:11:45.412Z,100920.13
2022-10-04T21:14:31.981Z,100933.81
2022-10-04T21:17:38.405Z,100926.06
2022-10-04T21:20:43.362Z,100930.69
2022-10-04T21:23:30.262Z,100924.28
2022-10-04T21:26:21.339Z,100911.47
2022-10-04T21:29:05.080Z,100917.38
2022-10-04T21:31:50.487Z,100932.22
2022-10-04T21:34:52.366Z,100924.34
2022-10-04T21:37:37.501Z,100924.28
2022-10-04T21:40:21.531Z,100847.81
2022-10-04T21:43:05.521Z,100928.16
2022-10-04T21:45:49.433Z,100924.63
2022-10-04T21:48:35.092Z,100892.19
2022-10-04T21:51:19.352Z,100941.09
2022-10-04T21:54:04.134Z,100918.88
2022-10-04T21:56:48.449Z,100891.25
2022-10-04T21:59:32.792Z,100938.88
2022-10-04T22:02:16.946Z,100864.56
2022-10-04T22:05:02.522Z,100939.38
2022-10-04T22:07:46.752Z,100903.94
2022-10-04T22:10:31.296Z,100898.50
2022-10-04T22:13:15.256Z,100907.09
2022-10-04T22:15:59.399Z,100945.09
2022-10-04T22:18:43.411Z,100907.09
2022-10-04T22:21:28.944Z,100913.16
2022-10-04T22:24:18.054Z,100950.94
2022-10-04T22:27:02.498Z,100947.81
2022-10-04T22:29:47.243Z,100946.81
2022-10-04T22:32:31.272Z,100907.63
2022-10-04T22:35:17.713Z,100953.72
2022-10-04T22:38:03.524Z,100945.91
2022-10-04T22:40:47.434Z,100902.78
2022-10-04T22:43:31.422Z,100896.88
2022-10-04T22:46:17.925Z,100905.63
2022-10-04T22:49:01.895Z,100953.28
2022-10-04T22:51:48.807Z,100911.16
2022-10-04T22:54:36.118Z,100941.09
2022-10-04T22:57:21.283Z,100952.13
2022-10-04T23:00:05.860Z,100909.31
2022-10-04T23:02:50.388Z,100962.56
2022-10-04T23:05:34.317Z,100926.72
2022-10-04T23:08:19.143Z,100940.16
2022-10-04T23:11:04.638Z,100935.88
2022-10-04T23:13:48.508Z,100934.53
2022-10-04T23:16:32.859Z,100959.09
2022-10-04T23:19:20.382Z,100965.22
2022-10-04T23:22:04.322Z,100939.31
2022-10-04T23:24:48.282Z,100931.59
2022-10-04T23:27:35.302Z,100969.09
2022-10-04T23:30:21.343Z,100965.50
2022-10-04T23:33:15.762Z,100929.00
2022-10-04T23:35:59.891Z,100959.94
2022-10-04T23:38:47.837Z,100925.50
2022-10-04T23:41:32.014Z,100923.28
2022-10-04T23:44:17.456Z,100962.88
2022-10-04T23:47:01.757Z,100944.69
2022-10-04T23:49:46.630Z,100943.28
2022-10-04T23:52:37.500Z,100919.63
2022-10-04T23:55:23.896Z,100949.00
2022-10-04T23:58:16.522Z,100965.31
